sensor_id;sensor_type;location;lat;lon;timestamp;P1;durP1;ratioP1;P2;durP2;ratioP2
39102;SDS011;24847;48.218;16.414;2023-07-28T00:02:16;1.45;;;1.20;;
39102;SDS011;24847;48.218;16.414;2023-07-28T00:07:38;1.38;;;1.23;;
39102;SDS011;24847;48.218;16.414;2023-07-28T00:13:02;1.27;;;1.13;;
39102;SDS011;24847;48.218;16.414;2023-07-28T00:18:25;1.75;;;1.33;;
39102;SDS011;24847;48.218;16.414;2023-07-28T00:23:47;1.42;;;1.20;;
39102;SDS011;24847;48.218;16.414;2023-07-28T00:29:11;1.60;;;1.27;;
39102;SDS011;24847;48.218;16.414;2023-07-28T00:34:33;1.58;;;1.42;;
39102;SDS011;24847;48.218;16.414;2023-07-28T00:39:56;1.25;;;1.10;;
39102;SDS011;24847;48.218;16.414;2023-07-28T00:45:19;1.38;;;1.13;;
39102;SDS011;24847;48.218;16.414;2023-07-28T00:50:43;1.17;;;1.08;;
39102;SDS011;24847;48.218;16.414;2023-07-28T00:56:08;1.58;;;1.25;;
39102;SDS011;24847;48.218;16.414;2023-07-28T01:01:33;1.55;;;1.27;;
39102;SDS011;24847;48.218;16.414;2023-07-28T01:06:57;1.25;;;1.15;;
39102;SDS011;24847;48.218;16.414;2023-07-28T01:12:27;1.55;;;1.38;;
39102;SDS011;24847;48.218;16.414;2023-07-28T01:17:51;1.35;;;1.25;;
39102;SDS011;24847;48.218;16.414;2023-07-28T01:23:16;1.45;;;1.35;;
39102;SDS011;24847;48.218;16.414;2023-07-28T01:28:43;1.20;;;1.10;;
39102;SDS011;24847;48.218;16.414;2023-07-28T01:34:07;1.40;;;1.20;;
39102;SDS011;24847;48.218;16.414;2023-07-28T01:39:29;1.30;;;1.00;;
39102;SDS011;24847;48.218;16.414;2023-07-28T01:44:54;1.80;;;1.20;;
39102;SDS011;24847;48.218;16.414;2023-07-28T01:50:16;1.30;;;1.20;;
39102;SDS011;24847;48.218;16.414;2023-07-28T01:55:39;2.15;;;1.20;;
39102;SDS011;24847;48.218;16.414;2023-07-28T02:01:02;1.45;;;1.25;;
39102;SDS011;24847;48.218;16.414;2023-07-28T02:06:25;1.42;;;1.30;;
39102;SDS011;24847;48.218;16.414;2023-07-28T02:11:48;1.83;;;1.17;;
39102;SDS011;24847;48.218;16.414;2023-07-28T02:17:12;1.20;;;1.10;;
39102;SDS011;24847;48.218;16.414;2023-07-28T02:22:34;1.38;;;1.27;;
39102;SDS011;24847;48.218;16.414;2023-07-28T02:27:56;1.10;;;1.00;;
39102;SDS011;24847;48.218;16.414;2023-07-28T02:33:20;1.10;;;0.82;;
39102;SDS011;24847;48.218;16.414;2023-07-28T02:38:43;1.20;;;1.10;;
39102;SDS011;24847;48.218;16.414;2023-07-28T02:44:05;1.40;;;1.20;;
39102;SDS011;24847;48.218;16.414;2023-07-28T02:49:29;2.03;;;1.35;;
39102;SDS011;24847;48.218;16.414;2023-07-28T02:54:52;1.50;;;1.13;;
39102;SDS011;24847;48.218;16.414;2023-07-28T03:00:15;1.60;;;1.15;;
39102;SDS011;24847;48.218;16.414;2023-07-28T03:05:39;1.90;;;1.10;;
39102;SDS011;24847;48.218;16.414;2023-07-28T03:11:02;2.65;;;1.20;;
39102;SDS011;24847;48.218;16.414;2023-07-28T03:16:24;1.45;;;1.05;;
39102;SDS011;24847;48.218;16.414;2023-07-28T03:21:48;3.42;;;2.10;;
39102;SDS011;24847;48.218;16.414;2023-07-28T03:27:10;8.23;;;7.03;;
39102;SDS011;24847;48.218;16.414;2023-07-28T03:32:33;7.32;;;5.97;;
39102;SDS011;24847;48.218;16.414;2023-07-28T03:37:57;3.88;;;3.10;;
39102;SDS011;24847;48.218;16.414;2023-07-28T03:43:19;3.05;;;1.90;;
39102;SDS011;24847;48.218;16.414;2023-07-28T03:48:42;1.73;;;1.30;;
39102;SDS011;24847;48.218;16.414;2023-07-28T03:54:06;2.10;;;1.20;;
39102;SDS011;24847;48.218;16.414;2023-07-28T03:59:28;1.52;;;1.20;;
39102;SDS011;24847;48.218;16.414;2023-07-28T04:04:53;1.88;;;1.70;;
39102;SDS011;24847;48.218;16.414;2023-07-28T04:10:17;1.70;;;1.42;;
39102;SDS011;24847;48.218;16.414;2023-07-28T04:15:40;1.73;;;1.60;;
39102;SDS011;24847;48.218;16.414;2023-07-28T04:21:02;1.88;;;1.60;;
39102;SDS011;24847;48.218;16.414;2023-07-28T04:26:27;1.90;;;1.65;;
39102;SDS011;24847;48.218;16.414;2023-07-28T04:31:49;1.52;;;1.25;;
39102;SDS011;24847;48.218;16.414;2023-07-28T04:37:12;1.60;;;1.30;;
39102;SDS011;24847;48.218;16.414;2023-07-28T04:42:36;1.40;;;1.10;;
39102;SDS011;24847;48.218;16.414;2023-07-28T04:47:58;1.75;;;1.17;;
39102;SDS011;24847;48.218;16.414;2023-07-28T04:53:21;2.13;;;1.40;;
39102;SDS011;24847;48.218;16.414;2023-07-28T04:58:45;1.33;;;1.20;;
39102;SDS011;24847;48.218;16.414;2023-07-28T05:04:07;2.05;;;1.50;;
39102;SDS011;24847;48.218;16.414;2023-07-28T05:09:30;1.70;;;1.30;;
39102;SDS011;24847;48.218;16.414;2023-07-28T05:14:54;1.80;;;1.42;;
39102;SDS011;24847;48.218;16.414;2023-07-28T05:20:17;2.75;;;1.50;;
39102;SDS011;24847;48.218;16.414;2023-07-28T05:25:40;2.53;;;1.50;;
39102;SDS011;24847;48.218;16.414;2023-07-28T05:31:04;1.60;;;1.40;;
39102;SDS011;24847;48.218;16.414;2023-07-28T05:36:27;1.65;;;1.40;;
39102;SDS011;24847;48.218;16.414;2023-07-28T05:41:50;1.85;;;1.52;;
39102;SDS011;24847;48.218;16.414;2023-07-28T05:47:13;1.92;;;1.70;;
39102;SDS011;24847;48.218;16.414;2023-07-28T05:52:36;2.13;;;1.75;;
39102;SDS011;24847;48.218;16.414;2023-07-28T05:57:58;3.42;;;1.90;;
39102;SDS011;24847;48.218;16.414;2023-07-28T06:03:22;2.28;;;2.00;;
39102;SDS011;24847;48.218;16.414;2023-07-28T06:08:45;1.88;;;1.70;;
39102;SDS011;24847;48.218;16.414;2023-07-28T06:14:07;2.80;;;1.58;;
39102;SDS011;24847;48.218;16.414;2023-07-28T06:19:31;2.58;;;2.10;;
39102;SDS011;24847;48.218;16.414;2023-07-28T06:24:53;5.38;;;4.28;;
39102;SDS011;24847;48.218;16.414;2023-07-28T06:30:16;2.70;;;2.17;;
39102;SDS011;24847;48.218;16.414;2023-07-28T06:35:40;2.92;;;1.80;;
39102;SDS011;24847;48.218;16.414;2023-07-28T06:41:02;2.47;;;1.45;;
39102;SDS011;24847;48.218;16.414;2023-07-28T06:46:25;1.70;;;1.50;;
39102;SDS011;24847;48.218;16.414;2023-07-28T06:51:48;1.73;;;1.60;;
39102;SDS011;24847;48.218;16.414;2023-07-28T06:57:11;2.92;;;1.88;;
39102;SDS011;24847;48.218;16.414;2023-07-28T07:02:33;1.88;;;1.42;;
39102;SDS011;24847;48.218;16.414;2023-07-28T07:07:57;1.25;;;1.13;;
39102;SDS011;24847;48.218;16.414;2023-07-28T07:13:21;2.35;;;1.58;;
39102;SDS011;24847;48.218;16.414;2023-07-28T07:18:43;3.45;;;1.60;;
39102;SDS011;24847;48.218;16.414;2023-07-28T07:24:10;1.40;;;1.23;;
39102;SDS011;24847;48.218;16.414;2023-07-28T07:29:34;2.08;;;1.70;;
39102;SDS011;24847;48.218;16.414;2023-07-28T07:34:56;2.00;;;1.35;;
39102;SDS011;24847;48.218;16.414;2023-07-28T07:40:20;2.08;;;1.42;;
39102;SDS011;24847;48.218;16.414;2023-07-28T07:45:43;2.15;;;1.50;;
39102;SDS011;24847;48.218;16.414;2023-07-28T07:51:07;7.38;;;1.77;;
39102;SDS011;24847;48.218;16.414;2023-07-28T07:56:31;1.67;;;1.40;;
39102;SDS011;24847;48.218;16.414;2023-07-28T08:01:53;1.58;;;1.40;;
39102;SDS011;24847;48.218;16.414;2023-07-28T08:07:16;1.88;;;1.60;;
39102;SDS011;24847;48.218;16.414;2023-07-28T08:12:40;2.30;;;1.40;;
39102;SDS011;24847;48.218;16.414;2023-07-28T08:18:05;1.55;;;1.45;;
39102;SDS011;24847;48.218;16.414;2023-07-28T08:23:27;1.50;;;1.40;;
39102;SDS011;24847;48.218;16.414;2023-07-28T08:28:51;1.90;;;1.80;;
39102;SDS011;24847;48.218;16.414;2023-07-28T08:34:13;1.77;;;1.33;;
39102;SDS011;24847;48.218;16.414;2023-07-28T08:39:37;1.38;;;1.27;;
39102;SDS011;24847;48.218;16.414;2023-07-28T08:45:01;1.63;;;1.40;;
39102;SDS011;24847;48.218;16.414;2023-07-28T08:50:25;1.30;;;1.20;;
39102;SDS011;24847;48.218;16.414;2023-07-28T08:55:47;1.55;;;1.30;;
39102;SDS011;24847;48.218;16.414;2023-07-28T09:01:11;2.20;;;1.35;;
39102;SDS011;24847;48.218;16.414;2023-07-28T09:06:34;1.52;;;1.42;;
39102;SDS011;24847;48.218;16.414;2023-07-28T09:11:56;1.73;;;1.23;;
39102;SDS011;24847;48.218;16.414;2023-07-28T09:17:20;2.45;;;1.45;;
39102;SDS011;24847;48.218;16.414;2023-07-28T09:22:43;2.90;;;1.42;;
39102;SDS011;24847;48.218;16.414;2023-07-28T09:28:06;1.60;;;1.33;;
39102;SDS011;24847;48.218;16.414;2023-07-28T09:33:30;1.90;;;1.40;;
39102;SDS011;24847;48.218;16.414;2023-07-28T09:38:53;2.13;;;1.70;;
39102;SDS011;24847;48.218;16.414;2023-07-28T09:44:16;1.40;;;1.30;;
39102;SDS011;24847;48.218;16.414;2023-07-28T09:49:41;4.28;;;1.63;;
39102;SDS011;24847;48.218;16.414;2023-07-28T09:55:09;1.63;;;1.52;;
39102;SDS011;24847;48.218;16.414;2023-07-28T10:00:34;1.67;;;1.58;;
39102;SDS011;24847;48.218;16.414;2023-07-28T10:05:59;1.50;;;1.40;;
39102;SDS011;24847;48.218;16.414;2023-07-28T10:11:21;2.28;;;1.60;;
39102;SDS011;24847;48.218;16.414;2023-07-28T10:16:44;3.08;;;1.50;;
39102;SDS011;24847;48.218;16.414;2023-07-28T10:22:09;1.90;;;1.65;;
39102;SDS011;24847;48.218;16.414;2023-07-28T10:27:34;1.58;;;1.48;;
39102;SDS011;24847;48.218;16.414;2023-07-28T10:32:58;2.00;;;1.70;;
39102;SDS011;24847;48.218;16.414;2023-07-28T10:38:32;1.50;;;1.30;;
39102;SDS011;24847;48.218;16.414;2023-07-28T10:43:57;3.83;;;1.70;;
39102;SDS011;24847;48.218;16.414;2023-07-28T10:49:20;1.67;;;1.50;;
39102;SDS011;24847;48.218;16.414;2023-07-28T10:54:44;1.67;;;1.25;;
39102;SDS011;24847;48.218;16.414;2023-07-28T11:00:07;1.55;;;1.45;;
39102;SDS011;24847;48.218;16.414;2023-07-28T11:05:32;2.95;;;1.42;;
39102;SDS011;24847;48.218;16.414;2023-07-28T11:10:56;2.90;;;1.58;;
39102;SDS011;24847;48.218;16.414;2023-07-28T11:16:18;1.75;;;1.52;;
39102;SDS011;24847;48.218;16.414;2023-07-28T11:21:41;1.20;;;1.10;;
39102;SDS011;24847;48.218;16.414;2023-07-28T11:27:06;1.20;;;1.10;;
39102;SDS011;24847;48.218;16.414;2023-07-28T11:32:29;1.92;;;1.15;;
39102;SDS011;24847;48.218;16.414;2023-07-28T11:37:52;1.80;;;1.17;;
39102;SDS011;24847;48.218;16.414;2023-07-28T11:43:18;2.00;;;1.35;;
39102;SDS011;24847;48.218;16.414;2023-07-28T11:48:40;1.38;;;1.27;;
39102;SDS011;24847;48.218;16.414;2023-07-28T11:54:03;1.58;;;1.45;;
39102;SDS011;24847;48.218;16.414;2023-07-28T11:59:27;2.03;;;1.35;;
39102;SDS011;24847;48.218;16.414;2023-07-28T12:04:49;1.50;;;1.33;;
39102;SDS011;24847;48.218;16.414;2023-07-28T12:10:14;1.60;;;1.42;;
39102;SDS011;24847;48.218;16.414;2023-07-28T12:15:41;1.52;;;1.42;;
39102;SDS011;24847;48.218;16.414;2023-07-28T12:21:03;1.45;;;1.35;;
39102;SDS011;24847;48.218;16.414;2023-07-28T12:26:26;1.92;;;1.50;;
39102;SDS011;24847;48.218;16.414;2023-07-28T12:31:49;2.30;;;1.55;;
39102;SDS011;24847;48.218;16.414;2023-07-28T12:37:12;1.65;;;1.50;;
39102;SDS011;24847;48.218;16.414;2023-07-28T12:42:34;1.90;;;1.42;;
39102;SDS011;24847;48.218;16.414;2023-07-28T12:47:58;1.83;;;1.38;;
39102;SDS011;24847;48.218;16.414;2023-07-28T12:53:21;1.40;;;1.30;;
39102;SDS011;24847;48.218;16.414;2023-07-28T12:58:44;1.73;;;1.50;;
39102;SDS011;24847;48.218;16.414;2023-07-28T13:04:07;1.70;;;1.38;;
39102;SDS011;24847;48.218;16.414;2023-07-28T13:09:30;1.67;;;1.40;;
39102;SDS011;24847;48.218;16.414;2023-07-28T13:14:52;1.25;;;1.10;;
39102;SDS011;24847;48.218;16.414;2023-07-28T13:20:16;1.30;;;1.20;;
39102;SDS011;24847;48.218;16.414;2023-07-28T13:25:39;1.27;;;1.17;;
39102;SDS011;24847;48.218;16.414;2023-07-28T13:31:01;1.60;;;1.40;;
39102;SDS011;24847;48.218;16.414;2023-07-28T13:36:26;1.67;;;1.48;;
39102;SDS011;24847;48.218;16.414;2023-07-28T13:41:48;1.52;;;1.42;;
39102;SDS011;24847;48.218;16.414;2023-07-28T13:47:11;1.50;;;1.40;;
39102;SDS011;24847;48.218;16.414;2023-07-28T13:52:35;2.00;;;1.50;;
39102;SDS011;24847;48.218;16.414;2023-07-28T13:57:57;1.70;;;1.60;;
39102;SDS011;24847;48.218;16.414;2023-07-28T14:03:19;1.90;;;1.45;;
39102;SDS011;24847;48.218;16.414;2023-07-28T14:08:43;2.33;;;1.55;;
39102;SDS011;24847;48.218;16.414;2023-07-28T14:14:08;1.80;;;1.50;;
39102;SDS011;24847;48.218;16.414;2023-07-28T14:19:30;1.70;;;1.50;;
39102;SDS011;24847;48.218;16.414;2023-07-28T14:24:56;2.25;;;1.45;;
39102;SDS011;24847;48.218;16.414;2023-07-28T14:30:18;1.52;;;1.33;;
39102;SDS011;24847;48.218;16.414;2023-07-28T14:35:41;1.80;;;1.58;;
39102;SDS011;24847;48.218;16.414;2023-07-28T14:41:07;1.70;;;1.55;;
39102;SDS011;24847;48.218;16.414;2023-07-28T14:46:29;2.08;;;1.88;;
39102;SDS011;24847;48.218;16.414;2023-07-28T14:51:52;1.67;;;1.52;;
39102;SDS011;24847;48.218;16.414;2023-07-28T14:57:15;2.58;;;2.00;;
39102;SDS011;24847;48.218;16.414;2023-07-28T15:02:38;2.05;;;1.85;;
39102;SDS011;24847;48.218;16.414;2023-07-28T15:08:00;1.77;;;1.58;;
39102;SDS011;24847;48.218;16.414;2023-07-28T15:13:24;2.72;;;1.90;;
39102;SDS011;24847;48.218;16.414;2023-07-28T15:18:46;2.38;;;1.73;;
39102;SDS011;24847;48.218;16.414;2023-07-28T15:24:12;2.10;;;1.65;;
39102;SDS011;24847;48.218;16.414;2023-07-28T15:29:36;2.00;;;1.80;;
39102;SDS011;24847;48.218;16.414;2023-07-28T15:34:58;1.92;;;1.83;;
39102;SDS011;24847;48.218;16.414;2023-07-28T15:40:21;1.60;;;1.50;;
39102;SDS011;24847;48.218;16.414;2023-07-28T15:45:44;2.35;;;1.95;;
39102;SDS011;24847;48.218;16.414;2023-07-28T15:51:12;3.03;;;1.90;;
39102;SDS011;24847;48.218;16.414;2023-07-28T15:56:35;1.95;;;1.75;;
39102;SDS011;24847;48.218;16.414;2023-07-28T16:01:59;2.15;;;1.95;;
39102;SDS011;24847;48.218;16.414;2023-07-28T16:07:23;3.67;;;2.55;;
39102;SDS011;24847;48.218;16.414;2023-07-28T16:12:45;1.98;;;1.77;;
39102;SDS011;24847;48.218;16.414;2023-07-28T16:18:09;2.15;;;1.95;;
39102;SDS011;24847;48.218;16.414;2023-07-28T16:23:32;1.90;;;1.67;;
39102;SDS011;24847;48.218;16.414;2023-07-28T16:28:54;1.75;;;1.65;;
39102;SDS011;24847;48.218;16.414;2023-07-28T16:34:18;1.60;;;1.50;;
39102;SDS011;24847;48.218;16.414;2023-07-28T16:39:40;1.73;;;1.63;;
39102;SDS011;24847;48.218;16.414;2023-07-28T16:45:03;2.75;;;1.70;;
39102;SDS011;24847;48.218;16.414;2023-07-28T16:50:28;2.50;;;1.90;;
39102;SDS011;24847;48.218;16.414;2023-07-28T16:55:51;2.25;;;1.80;;
39102;SDS011;24847;48.218;16.414;2023-07-28T17:01:13;1.77;;;1.67;;
39102;SDS011;24847;48.218;16.414;2023-07-28T17:06:38;1.70;;;1.60;;
39102;SDS011;24847;48.218;16.414;2023-07-28T17:12:00;1.95;;;1.67;;
39102;SDS011;24847;48.218;16.414;2023-07-28T17:17:23;2.22;;;1.95;;
39102;SDS011;24847;48.218;16.414;2023-07-28T17:22:47;1.58;;;1.48;;
39102;SDS011;24847;48.218;16.414;2023-07-28T17:28:10;1.90;;;1.73;;
39102;SDS011;24847;48.218;16.414;2023-07-28T17:33:33;2.35;;;2.05;;
39102;SDS011;24847;48.218;16.414;2023-07-28T17:38:56;4.07;;;3.38;;
39102;SDS011;24847;48.218;16.414;2023-07-28T17:44:19;2.72;;;2.45;;
39102;SDS011;24847;48.218;16.414;2023-07-28T17:49:42;2.20;;;1.92;;
39102;SDS011;24847;48.218;16.414;2023-07-28T17:55:07;2.45;;;1.80;;
39102;SDS011;24847;48.218;16.414;2023-07-28T18:00:31;2.42;;;1.90;;
39102;SDS011;24847;48.218;16.414;2023-07-28T18:05:54;2.53;;;2.33;;
39102;SDS011;24847;48.218;16.414;2023-07-28T18:11:19;5.10;;;3.92;;
39102;SDS011;24847;48.218;16.414;2023-07-28T18:16:42;4.90;;;4.45;;
39102;SDS011;24847;48.218;16.414;2023-07-28T18:22:06;3.20;;;2.90;;
39102;SDS011;24847;48.218;16.414;2023-07-28T18:27:31;2.45;;;2.20;;
39102;SDS011;24847;48.218;16.414;2023-07-28T18:32:55;1.80;;;1.70;;
39102;SDS011;24847;48.218;16.414;2023-07-28T18:38:22;8.38;;;2.22;;
39102;SDS011;24847;48.218;16.414;2023-07-28T18:43:46;3.08;;;1.90;;
39102;SDS011;24847;48.218;16.414;2023-07-28T18:49:09;2.13;;;1.92;;
39102;SDS011;24847;48.218;16.414;2023-07-28T18:54:32;2.35;;;1.92;;
39102;SDS011;24847;48.218;16.414;2023-07-28T18:59:57;2.70;;;2.10;;
39102;SDS011;24847;48.218;16.414;2023-07-28T19:05:21;2.75;;;1.88;;
39102;SDS011;24847;48.218;16.414;2023-07-28T19:10:44;2.22;;;1.98;;
39102;SDS011;24847;48.218;16.414;2023-07-28T19:16:09;3.53;;;3.22;;
39102;SDS011;24847;48.218;16.414;2023-07-28T19:21:33;3.33;;;2.72;;
39102;SDS011;24847;48.218;16.414;2023-07-28T19:26:56;2.20;;;2.00;;
39102;SDS011;24847;48.218;16.414;2023-07-28T19:32:21;2.65;;;2.15;;
39102;SDS011;24847;48.218;16.414;2023-07-28T19:37:46;4.47;;;3.47;;
39102;SDS011;24847;48.218;16.414;2023-07-28T19:43:10;2.50;;;2.20;;
39102;SDS011;24847;48.218;16.414;2023-07-28T19:48:36;2.20;;;2.00;;
39102;SDS011;24847;48.218;16.414;2023-07-28T19:54:02;2.63;;;2.30;;
39102;SDS011;24847;48.218;16.414;2023-07-28T19:59:29;2.30;;;2.10;;
39102;SDS011;24847;48.218;16.414;2023-07-28T20:04:53;2.10;;;1.90;;
39102;SDS011;24847;48.218;16.414;2023-07-28T20:10:18;2.10;;;1.90;;
39102;SDS011;24847;48.218;16.414;2023-07-28T20:15:42;2.45;;;1.83;;
39102;SDS011;24847;48.218;16.414;2023-07-28T20:21:12;2.83;;;1.90;;
39102;SDS011;24847;48.218;16.414;2023-07-28T20:26:36;4.75;;;4.25;;
39102;SDS011;24847;48.218;16.414;2023-07-28T20:31:59;2.63;;;2.40;;
39102;SDS011;24847;48.218;16.414;2023-07-28T20:37:27;4.35;;;2.28;;
39102;SDS011;24847;48.218;16.414;2023-07-28T20:42:51;2.17;;;1.98;;
39102;SDS011;24847;48.218;16.414;2023-07-28T20:48:16;2.42;;;2.08;;
39102;SDS011;24847;48.218;16.414;2023-07-28T20:53:41;4.28;;;3.88;;
39102;SDS011;24847;48.218;16.414;2023-07-28T20:59:07;2.60;;;2.38;;
39102;SDS011;24847;48.218;16.414;2023-07-28T21:04:33;2.00;;;1.80;;
39102;SDS011;24847;48.218;16.414;2023-07-28T21:09:57;13.93;;;2.88;;
39102;SDS011;24847;48.218;16.414;2023-07-28T21:15:20;2.05;;;1.77;;
39102;SDS011;24847;48.218;16.414;2023-07-28T21:20:42;1.83;;;1.73;;
39102;SDS011;24847;48.218;16.414;2023-07-28T21:26:07;1.90;;;1.70;;
39102;SDS011;24847;48.218;16.414;2023-07-28T21:31:31;2.33;;;1.63;;
39102;SDS011;24847;48.218;16.414;2023-07-28T21:36:58;2.50;;;1.67;;
39102;SDS011;24847;48.218;16.414;2023-07-28T21:42:22;1.67;;;1.58;;
39102;SDS011;24847;48.218;16.414;2023-07-28T21:47:45;1.70;;;1.60;;
39102;SDS011;24847;48.218;16.414;2023-07-28T21:53:11;2.15;;;1.95;;
39102;SDS011;24847;48.218;16.414;2023-07-28T21:58:35;2.05;;;1.85;;
39102;SDS011;24847;48.218;16.414;2023-07-28T22:03:57;1.65;;;1.55;;
39102;SDS011;24847;48.218;16.414;2023-07-28T22:09:20;1.63;;;1.30;;
39102;SDS011;24847;48.218;16.414;2023-07-28T22:14:45;1.63;;;1.45;;
39102;SDS011;24847;48.218;16.414;2023-07-28T22:20:07;1.92;;;1.73;;
39102;SDS011;24847;48.218;16.414;2023-07-28T22:25:36;1.60;;;1.50;;
39102;SDS011;24847;48.218;16.414;2023-07-28T22:31:03;2.00;;;1.65;;
39102;SDS011;24847;48.218;16.414;2023-07-28T22:36:26;1.73;;;1.60;;
39102;SDS011;24847;48.218;16.414;2023-07-28T22:41:48;1.58;;;1.38;;
39102;SDS011;24847;48.218;16.414;2023-07-28T22:47:12;1.58;;;1.48;;
39102;SDS011;24847;48.218;16.414;2023-07-28T22:52:35;1.40;;;1.30;;
39102;SDS011;24847;48.218;16.414;2023-07-28T22:57:58;1.80;;;1.60;;
39102;SDS011;24847;48.218;16.414;2023-07-28T23:03:22;1.58;;;1.48;;
39102;SDS011;24847;48.218;16.414;2023-07-28T23:08:44;1.67;;;1.58;;
39102;SDS011;24847;48.218;16.414;2023-07-28T23:14:07;1.85;;;1.50;;
39102;SDS011;24847;48.218;16.414;2023-07-28T23:19:30;1.85;;;1.50;;
39102;SDS011;24847;48.218;16.414;2023-07-28T23:24:53;3.58;;;2.42;;
39102;SDS011;24847;48.218;16.414;2023-07-28T23:30:15;2.42;;;1.95;;
39102;SDS011;24847;48.218;16.414;2023-07-28T23:35:39;2.58;;;2.22;;
39102;SDS011;24847;48.218;16.414;2023-07-28T23:41:02;1.95;;;1.85;;
39102;SDS011;24847;48.218;16.414;2023-07-28T23:46:24;1.70;;;1.60;;
39102;SDS011;24847;48.218;16.414;2023-07-28T23:51:48;1.52;;;1.35;;
39102;SDS011;24847;48.218;16.414;2023-07-28T23:57:10;2.47;;;1.70;;
